Time;durP1;ratioP1;P1;durP2;ratioP2;P2;SDS_P1;SDS_P2;PMS_P1;PMS_P2;Temp;Humidity;BMP_temperature;BMP_pressure;BME280_temperature;BME280_humidity;BME280_pressure;Samples;Min_cycle;Max_cycle;Signal;HPM_P1;HPM_P2
2022/10/18 10:29:52;;;;;;;36.50;23.40;;;;;;;18.83;36.52;102089.65;101263;1334;600128;-93
2022/10/18 10:32:19;;;;;;;30.80;16.50;;;;;;;18.81;36.66;102087.75;101476;1339;70054;-87
2022/10/18 10:34:44;;;;;;;30.00;17.00;;;;;;;18.80;36.67;102081.27;101485;1337;70034;-88
2022/10/18 10:37:40;;;;;;;32.80;17.70;;;;;;;18.79;36.62;102075.61;101642;1328;68015;-88
2022/10/18 10:40:15;;;;;;;33.20;20.20;;;;;;;18.78;36.53;102069.98;101521;1333;82143;-88
2022/10/18 10:43:02;;;;;;;30.40;17.60;;;;;;;18.76;36.55;102067.64;101721;1333;171353;-89
2022/10/18 10:45:33;;;;;;;33.80;15.60;;;;;;;18.75;36.55;102058.38;101808;1331;68163;-87
2022/10/18 10:48:16;;;;;;;26.20;14.50;;;;;;;18.74;36.40;102051.45;101892;1334;69981;-88
2022/10/18 10:50:51;;;;;;;23.80;12.90;;;;;;;18.72;36.32;102048.07;101594;1334;72037;-93
2022/10/18 10:53:50;;;;;;;29.80;13.90;;;;;;;18.70;36.14;102046.15;101687;1334;82961;-88
2022/10/18 10:56:29;;;;;;;30.10;14.70;;;;;;;18.67;35.72;102035.86;101678;1316;73481;-89
2022/10/18 10:58:57;;;;;;;26.10;13.00;;;;;;;18.62;35.49;102031.20;101726;1334;69878;-89
2022/10/18 11:01:28;;;;;;;23.30;12.40;;;;;;;18.60;35.37;102028.32;101727;1333;69893;-86
2022/10/18 11:03:56;;;;;;;25.50;13.70;;;;;;;18.59;35.28;102024.10;101810;1334;72963;-89
2022/10/18 11:06:42;;;;;;;20.80;13.10;;;;;;;18.59;35.22;102018.66;101640;1334;82812;-89
2022/10/18 11:09:39;;;;;;;24.90;12.80;;;;;;;18.59;35.19;102015.70;101604;1334;72463;-88
2022/10/18 11:12:31;;;;;;;20.30;12.10;;;;;;;18.59;35.21;102009.27;101487;1326;69828;-88
2022/10/18 11:15:10;;;;;;;16.30;11.40;;;;;;;18.58;35.06;102007.06;101585;1326;69912;-89
2022/10/18 11:18:04;;;;;;;18.90;11.20;;;;;;;18.59;35.03;101999.84;101370;1326;72822;-92
2022/10/18 11:20:44;;;;;;;20.40;11.00;;;;;;;18.59;35.08;101996.48;101259;1326;81654;-87
2022/10/18 11:23:11;;;;;;;17.50;10.90;;;;;;;18.59;35.01;101991.89;100991;1334;72652;-86
2022/10/18 11:25:43;;;;;;;20.90;11.30;;;;;;;18.60;35.00;101989.71;101123;1324;70030;-86
2022/10/18 11:28:18;;;;;;;20.40;10.40;;;;;;;18.60;34.99;101985.70;101128;1333;69959;-87
2022/10/18 11:30:54;;;;;;;17.00;9.90;;;;;;;18.60;34.89;101978.26;101111;1337;71614;-87
2022/10/18 11:33:51;;;;;;;15.80;9.60;;;;;;;18.60;34.87;101971.44;101233;1332;83113;-87
2022/10/18 11:36:23;;;;;;;16.00;9.70;;;;;;;18.61;34.81;101961.96;101074;1331;73514;-87
2022/10/18 11:39:21;;;;;;;16.20;8.60;;;;;;;18.61;34.70;101958.35;100696;1329;70062;-88
2022/10/18 11:41:56;;;;;;;16.50;8.70;;;;;;;18.61;34.62;101952.08;101352;1334;68647;-87
2022/10/18 11:44:30;;;;;;;12.90;8.90;;;;;;;18.61;34.58;101942.31;102607;1334;71781;-86
2022/10/18 11:47:17;;;;;;;17.10;8.80;;;;;;;18.62;34.52;101933.09;102596;1330;82898;-86
2022/10/18 11:50:25;;;;;;;13.30;10.00;;;;;;;18.62;34.58;101928.36;102628;1334;71103;-87
2022/10/18 11:53:03;;;;;;;16.10;9.40;;;;;;;18.65;34.83;101922.55;102239;1328;69803;-86
2022/10/18 11:56:02;;;;;;;16.50;8.90;;;;;;;18.69;34.88;101922.08;101201;1328;69953;-86
2022/10/18 11:58:31;;;;;;;17.30;9.90;;;;;;;18.74;35.33;101914.41;102416;1333;71650;-87
2022/10/18 12:01:40;;;;;;;20.20;10.20;;;;;;;18.82;35.57;101911.81;102473;1333;83045;-87
2022/10/18 12:04:18;;;;;;;18.30;10.60;;;;;;;18.85;35.45;101908.95;102129;1329;71396;-86
2022/10/18 12:06:53;;;;;;;22.00;10.10;;;;;;;18.87;35.35;101906.88;102246;1332;67711;-87
2022/10/18 12:09:29;;;;;;;14.70;10.20;;;;;;;18.87;35.29;101899.58;101175;1334;70092;-87
2022/10/18 12:12:06;;;;;;;19.70;11.20;;;;;;;18.88;35.09;101897.94;100964;1324;71993;-87
2022/10/18 12:14:52;;;;;;;19.60;9.60;;;;;;;18.88;35.07;101898.56;101154;1334;83712;-91
2022/10/18 12:17:29;;;;;;;26.90;10.30;;;;;;;18.88;35.02;101894.98;102586;1320;72649;-86
2022/10/18 12:20:02;;;;;;;15.50;9.60;;;;;;;18.88;34.92;101894.19;102698;1333;69921;-87
2022/10/18 12:22:34;;;;;;;15.60;9.50;;;;;;;18.87;34.82;101888.36;102261;1332;70156;-86
2022/10/18 12:25:00;;;;;;;17.60;10.00;;;;;;;18.87;34.79;101887.96;101229;1326;73345;-84
2022/10/18 12:27:37;;;;;;;16.10;9.30;;;;;;;18.86;34.75;101882.13;101202;1332;83054;-84
2022/10/18 12:30:28;;;;;;;24.00;9.60;;;;;;;18.87;34.59;101877.80;100642;1335;72722;-87
2022/10/18 12:33:02;;;;;;;14.10;9.30;;;;;;;18.85;34.58;101875.36;101081;1334;69977;-87
2022/10/18 12:35:28;;;;;;;18.90;9.30;;;;;;;18.84;34.46;101870.43;100891;1339;70333;-88
2022/10/18 12:37:59;;;;;;;18.30;9.60;;;;;;;18.84;34.48;101869.30;101011;1335;70008;-87
2022/10/18 12:40:46;;;;;;;18.60;9.00;;;;;;;18.84;34.35;101863.55;100668;1337;82950;-88
2022/10/18 12:43:39;;;;;;;20.70;8.80;;;;;;;18.83;34.34;101859.58;100700;1337;73333;-87
2022/10/18 12:46:06;;;;;;;16.10;9.50;;;;;;;18.83;34.32;101852.08;101129;1334;70155;-87
2022/10/18 12:48:41;;;;;;;16.50;8.80;;;;;;;18.82;34.37;101852.25;101193;1329;69990;-87
2022/10/18 12:51:22;;;;;;;14.80;9.20;;;;;;;18.82;34.32;101846.48;100590;1336;72897;-87
2022/10/18 12:53:53;;;;;;;;;;;;;;;18.82;34.36;101844.33;100732;1337;83067;-87
2022/10/18 12:56:28;;;;;;;17.60;8.70;;;;;;;18.80;34.45;101844.73;100715;1326;72655;-88
2022/10/18 12:59:15;;;;;;;15.00;9.30;;;;;;;18.80;34.32;101838.79;101188;1333;70059;-88
2022/10/18 13:01:50;;;;;;;23.60;13.90;;;;;;;18.81;34.30;101837.14;101224;1332;68561;-87
2022/10/18 13:04:28;;;;;;;20.90;11.40;;;;;;;18.83;34.26;101836.60;101390;1333;74345;-88
2022/10/18 13:06:56;;;;;;;17.30;11.10;;;;;;;18.83;34.20;101840.66;101265;1334;83196;-88
2022/10/18 13:09:22;;;;;;;31.50;10.00;;;;;;;18.84;34.20;101835.90;101131;1333;72796;-88
2022/10/18 13:11:51;;;;;;;17.50;9.20;;;;;;;18.85;34.10;101833.79;101179;1338;68731;-88
2022/10/18 13:14:53;;;;;;;19.60;9.80;;;;;;;18.86;34.04;101830.39;100754;1336;69980;-88
2022/10/18 13:17:37;;;;;;;15.40;9.00;;;;;;;18.85;33.95;101826.80;101063;1334;73909;-88
2022/10/18 13:20:25;;;;;;;17.60;9.10;;;;;;;18.86;33.95;101823.65;101075;1332;83973;-87
2022/10/18 13:23:13;;;;;;;12.80;8.60;;;;;;;18.86;33.95;101819.98;101071;1326;73556;-87
2022/10/18 13:26:03;;;;;;;18.30;9.00;;;;;;;18.85;33.96;101816.23;101059;1340;69946;-88
2022/10/18 13:28:28;;;;;;;15.40;9.30;;;;;;;18.84;33.96;101812.37;101177;1334;69924;-87
2022/10/18 13:30:53;;;;;;;14.00;8.90;;;;;;;18.83;33.86;101807.43;101131;1333;70008;-88
2022/10/18 13:33:28;;;;;;;14.00;8.60;;;;;;;18.82;33.93;101804.42;101128;1333;70134;-87
2022/10/18 13:35:55;;;;;;;15.90;8.60;;;;;;;18.81;33.91;101797.96;101039;1334;71599;-87
2022/10/18 13:38:45;;;;;;;15.10;8.60;;;;;;;18.81;33.91;101795.33;101168;1333;70023;-87
2022/10/18 13:41:24;;;;;;;25.10;9.40;;;;;;;18.80;33.97;101791.27;103013;1334;67365;-90
2022/10/18 13:44:15;;;;;;;19.70;8.80;;;;;;;18.79;34.04;101787.30;102019;1328;72944;-88
2022/10/18 13:46:43;;;;;;;20.90;8.80;;;;;;;18.79;33.97;101784.90;101900;1326;82908;-87
2022/10/18 13:49:12;;;;;;;19.20;8.70;;;;;;;18.78;33.92;101784.13;102024;1330;71655;-88
2022/10/18 13:52:15;;;;;;;21.20;8.50;;;;;;;18.79;34.06;101778.42;101942;1327;68566;-87
2022/10/18 13:55:00;;;;;;;22.00;8.50;;;;;;;18.78;33.92;101773.72;101649;1334;70033;-87
2022/10/18 13:57:32;;;;;;;21.40;7.50;;;;;;;18.77;33.91;101770.63;101124;1334;73809;-87
2022/10/18 13:59:58;;;;;;;21.40;7.20;;;;;;;18.76;33.87;101769.88;101162;1327;82941;-87
2022/10/18 14:02:40;;;;;;;22.00;7.60;;;;;;;18.75;33.96;101765.73;101128;1331;69985;-87
2022/10/18 14:05:27;;;;;;;13.90;6.80;;;;;;;18.74;33.87;101763.33;101165;1339;69911;-92
2022/10/18 14:08:02;;;;;;;13.60;6.40;;;;;;;18.72;33.84;101762.90;100993;1334;69912;-87
2022/10/18 14:10:37;;;;;;;9.90;6.40;;;;;;;18.71;33.72;101754.29;100734;1343;72965;-87
2022/10/18 14:13:02;;;;;;;17.40;6.40;;;;;;;18.70;33.65;101757.22;101133;1335;83888;-87
2022/10/18 14:15:32;;;;;;;12.80;6.70;;;;;;;18.70;33.64;101752.73;101124;1337;70020;-85
2022/10/18 14:18:01;;;;;;;13.70;6.50;;;;;;;18.69;33.47;101744.59;100838;1333;67903;-86
2022/10/18 14:20:28;;;;;;;15.40;6.10;;;;;;;18.68;33.42;101743.59;101201;1334;70418;-87
2022/10/18 14:23:15;;;;;;;12.50;6.60;;;;;;;18.66;33.43;101738.14;101263;1327;73916;-91
2022/10/18 14:25:41;;;;;;;17.60;6.60;;;;;;;18.63;33.30;101733.87;101282;1332;83043;-87
2022/10/18 14:28:11;;;;;;;16.60;6.60;;;;;;;18.62;33.36;101731.75;101114;1320;69954;-87
2022/10/18 14:30:51;;;;;;;18.70;6.90;;;;;;;18.62;33.38;101729.19;100778;1336;70063;-86
2022/10/18 14:33:52;;;;;;;13.50;6.60;;;;;;;18.62;33.42;101724.61;101193;1326;69959;-87
2022/10/18 14:36:18;;;;;;;13.40;7.20;;;;;;;18.62;33.47;101719.02;100725;1334;73703;-87
2022/10/18 14:38:54;;;;;;;16.70;6.70;;;;;;;18.63;33.58;101718.17;101199;1334;70077;-87
2022/10/18 14:41:23;;;;;;;12.50;7.40;;;;;;;18.64;33.53;101713.73;100943;1329;73537;-87
2022/10/18 14:43:49;;;;;;;13.70;7.20;;;;;;;18.64;33.57;101715.23;101238;1334;69868;-91
2022/10/18 14:46:26;;;;;;;14.50;7.40;;;;;;;18.65;33.53;101713.30;100700;1329;70044;-87
2022/10/18 14:48:59;;;;;;;13.80;6.90;;;;;;;18.65;33.61;101708.95;101196;1333;73890;-85
2022/10/18 14:51:25;;;;;;;16.00;7.30;;;;;;;18.66;33.67;101706.55;101280;1337;83027;-85
2022/10/18 14:53:51;;;;;;;14.10;7.90;;;;;;;18.66;33.70;101699.54;101208;1337;69896;-87
2022/10/18 14:56:40;;;;;;;16.70;8.20;;;;;;;18.67;33.65;101696.08;101325;1333;70060;-86
2022/10/18 14:59:15;;;;;;;13.90;7.80;;;;;;;18.67;33.83;101695.17;101029;1326;69980;-87
2022/10/18 15:01:49;;;;;;;15.10;7.90;;;;;;;18.67;33.89;101696.45;101070;1333;73625;-87
2022/10/18 15:04:15;;;;;;;12.80;8.10;;;;;;;18.68;33.89;101693.55;101093;1333;84080;-86
2022/10/18 15:06:43;;;;;;;17.30;8.30;;;;;;;18.68;33.88;101691.52;101207;1336;70024;-86
2022/10/18 15:09:09;;;;;;;14.60;8.20;;;;;;;18.68;33.90;101692.00;101042;1338;70086;-87
2022/10/18 15:11:34;;;;;;;13.00;7.90;;;;;;;18.68;33.93;101692.47;100622;1338;70157;-86
2022/10/18 15:14:05;;;;;;;17.90;8.70;;;;;;;18.69;33.98;101688.14;101153;1334;70063;-87
2022/10/18 15:16:31;;;;;;;15.00;8.40;;;;;;;18.69;34.01;101686.30;101229;1333;83946;-87
2022/10/18 15:19:13;;;;;;;13.90;8.10;;;;;;;18.69;34.02;101680.99;101128;1334;69950;-87
2022/10/18 15:21:56;;;;;;;15.90;8.20;;;;;;;18.69;34.14;101682.38;101158;1334;70359;-87
2022/10/18 15:24:25;;;;;;;15.00;8.10;;;;;;;18.69;34.12;101680.85;101132;1333;70086;-87
2022/10/18 15:26:51;;;;;;;18.20;8.70;;;;;;;18.69;34.19;101678.76;101143;1334;73682;-87
2022/10/18 15:29:18;;;;;;;16.00;8.70;;;;;;;18.69;34.20;101676.91;101050;1337;69992;-87
2022/10/18 15:31:44;;;;;;;19.40;8.20;;;;;;;18.69;34.23;101674.27;101110;1330;72400;-92
2022/10/18 15:34:24;;;;;;;18.00;8.70;;;;;;;18.69;34.37;101679.48;100642;1337;70060;-87
2022/10/18 15:36:51;;;;;;;20.50;8.90;;;;;;;18.69;34.35;101674.98;100827;1328;70000;-87
2022/10/18 15:39:19;;;;;;;19.90;9.40;;;;;;;18.68;34.41;101674.40;101232;1334;73763;-86
2022/10/18 15:41:47;;;;;;;19.70;9.00;;;;;;;18.68;34.42;101672.87;101163;1327;83144;-86
2022/10/18 15:44:20;;;;;;;17.70;9.50;;;;;;;18.68;34.41;101671.34;101121;1327;73307;-87
2022/10/18 15:46:47;;;;;;;17.00;9.50;;;;;;;18.67;34.54;101670.81;101135;1326;69880;-92
2022/10/18 15:49:44;;;;;;;18.20;9.90;;;;;;;18.68;34.58;101671.92;101204;1329;69938;-87
2022/10/18 15:52:34;;;;;;;22.20;10.30;;;;;;;18.67;34.59;101667.64;101212;1326;73701;-87
2022/10/18 15:55:00;;;;;;;21.00;11.70;;;;;;;18.66;34.53;101665.11;101285;1334;82616;-87
2022/10/18 15:57:25;;;;;;;28.10;11.50;;;;;;;18.65;34.59;101665.77;101187;1333;70506;-87
2022/10/18 15:59:52;;;;;;;23.70;11.10;;;;;;;18.65;34.64;101662.96;101136;1335;70029;-87
2022/10/18 16:02:18;;;;;;;17.60;10.90;;;;;;;18.66;34.71;101664.55;101159;1332;69939;-87
2022/10/18 16:04:44;;;;;;;30.10;11.10;;;;;;;18.66;34.71;101663.75;100691;1334;70041;-88
2022/10/18 16:07:10;;;;;;;20.00;10.90;;;;;;;18.66;34.75;101664.30;101137;1326;69946;-86
2022/10/18 16:09:36;;;;;;;24.40;10.50;;;;;;;18.66;34.72;101664.55;101153;1333;69993;-86
2022/10/18 16:12:02;;;;;;;25.70;10.50;;;;;;;18.65;34.72;101668.41;100832;1335;70076;-87
2022/10/18 16:14:28;;;;;;;21.90;11.20;;;;;;;18.66;34.81;101666.80;101269;1332;73892;-87
2022/10/18 16:17:05;;;;;;;26.10;10.70;;;;;;;18.65;34.84;101667.30;101253;1334;70026;-87
2022/10/18 16:19:31;;;;;;;27.10;11.10;;;;;;;18.65;34.79;101668.17;101167;1329;72618;-91
2022/10/18 16:21:56;;;;;;;28.50;11.20;;;;;;;18.65;34.89;101669.69;100579;1334;70095;-87
2022/10/18 16:24:22;;;;;;;27.10;11.40;;;;;;;18.65;34.80;101666.73;101129;1332;69961;-87
2022/10/18 16:26:47;;;;;;;22.60;11.50;;;;;;;18.65;34.88;101664.27;101468;1332;67657;-87
2022/10/18 16:29:20;;;;;;;25.90;12.00;;;;;;;18.65;34.88;101664.58;100968;1337;70009;-87
2022/10/18 16:31:46;;;;;;;27.90;11.70;;;;;;;18.65;34.84;101664.17;101233;1328;69854;-87
2022/10/18 16:34:13;;;;;;;28.50;11.80;;;;;;;18.65;34.89;101663.39;101293;1337;70100;-87
2022/10/18 16:36:39;;;;;;;23.10;11.60;;;;;;;18.65;34.88;101662.74;100823;1327;74680;-87
2022/10/18 16:39:08;;;;;;;23.60;12.60;;;;;;;18.64;34.82;101658.75;100706;1331;70040;-87
2022/10/18 16:41:34;;;;;;;29.80;12.40;;;;;;;18.65;34.89;101656.83;101092;1334;72553;-87
2022/10/18 16:43:59;;;;;;;28.70;11.90;;;;;;;18.64;34.81;101653.23;101152;1328;69965;-87
2022/10/18 16:46:30;;;;;;;23.30;12.20;;;;;;;18.64;34.78;101652.63;101171;1334;70082;-92
2022/10/18 16:48:55;;;;;;;18.50;11.40;;;;;;;18.63;34.77;101654.40;101046;1334;73715;-86
2022/10/18 16:51:21;;;;;;;22.50;11.50;;;;;;;18.63;34.76;101654.33;101131;1329;70095;-86
2022/10/18 16:53:46;;;;;;;26.40;11.70;;;;;;;18.63;34.77;101654.42;101117;1333;70075;-87
2022/10/18 16:56:25;;;;;;;29.60;11.50;;;;;;;18.63;34.74;101647.45;100732;1337;70094;-87
2022/10/18 16:58:51;;;;;;;23.40;11.90;;;;;;;18.62;34.64;101647.79;101164;1333;69960;-87
2022/10/18 17:01:18;;;;;;;19.40;12.10;;;;;;;18.62;34.70;101647.32;101068;1328;70093;-89
2022/10/18 17:03:44;;;;;;;23.80;12.00;;;;;;;18.62;34.69;101645.79;100869;1335;70089;-87
2022/10/18 17:06:17;;;;;;;19.00;12.40;;;;;;;18.61;34.65;101644.70;101075;1339;70114;-87
2022/10/18 17:08:43;;;;;;;23.20;11.60;;;;;;;18.61;34.63;101639.59;101195;1327;70140;-87
2022/10/18 17:11:09;;;;;;;18.20;11.00;;;;;;;18.61;34.63;101639.60;101063;1327;70089;-87
2022/10/18 17:13:35;;;;;;;21.90;11.70;;;;;;;18.61;34.60;101634.55;101067;1333;69913;-88
2022/10/18 17:16:02;;;;;;;21.30;11.50;;;;;;;18.61;34.54;101628.38;101006;1333;69995;-86
2022/10/18 17:18:29;;;;;;;21.00;11.70;;;;;;;18.60;34.49;101619.43;101110;1327;69952;-86
2022/10/18 17:20:58;;;;;;;28.70;10.70;;;;;;;18.60;34.56;101620.01;101076;1334;69983;-87
2022/10/18 17:23:24;;;;;;;17.50;10.90;;;;;;;18.59;34.50;101617.47;101003;1334;69955;-87
2022/10/18 17:25:50;;;;;;;20.90;10.70;;;;;;;18.59;34.50;101616.10;101094;1326;70120;-87
2022/10/18 17:28:16;;;;;;;18.90;11.80;;;;;;;18.60;34.46;101612.33;100954;1329;70226;-87
2022/10/18 17:30:42;;;;;;;24.00;11.60;;;;;;;18.60;34.45;101607.99;100944;1336;70031;-86
2022/10/18 17:33:07;;;;;;;21.30;11.50;;;;;;;18.59;34.49;101604.52;100933;1320;70092;-87
2022/10/18 17:35:33;;;;;;;23.50;12.40;;;;;;;18.59;34.47;101601.55;100529;1333;70199;-87
2022/10/18 17:37:58;;;;;;;26.90;12.90;;;;;;;18.59;34.47;101600.68;101015;1334;69996;-87
2022/10/18 17:40:24;;;;;;;26.60;13.00;;;;;;;18.58;34.47;101601.48;100981;1334;70005;-87
2022/10/18 17:42:52;;;;;;;30.20;14.10;;;;;;;18.58;34.48;101599.42;100943;1334;70023;-86
2022/10/18 17:45:19;;;;;;;27.60;13.20;;;;;;;18.58;34.46;101599.83;100657;1333;69990;-86
2022/10/18 17:47:44;;;;;;;33.60;13.90;;;;;;;18.57;34.49;101600.50;100997;1329;70143;-86
2022/10/18 17:50:10;;;;;;;26.90;13.40;;;;;;;18.57;34.41;101597.38;101098;1332;68702;-87
2022/10/18 17:52:40;;;;;;;37.80;14.00;;;;;;;18.57;34.43;101598.27;101035;1334;70255;-87
2022/10/18 17:55:05;;;;;;;28.70;13.90;;;;;;;18.56;34.45;101587.31;100994;1334;69859;-90
2022/10/18 17:57:31;;;;;;;30.40;14.90;;;;;;;18.56;34.51;101589.42;100413;1334;70090;-87
2022/10/18 17:59:58;;;;;;;30.10;15.10;;;;;;;18.56;34.47;101591.02;100747;1336;70647;-87
2022/10/18 18:02:23;;;;;;;29.90;15.30;;;;;;;18.56;34.43;101587.19;101178;1321;69952;-87
2022/10/18 18:04:49;;;;;;;36.00;14.50;;;;;;;18.56;34.52;101585.75;101139;1327;69938;-88
2022/10/18 18:07:14;;;;;;;27.50;14.50;;;;;;;18.55;34.44;101585.79;100718;1331;70025;-88
2022/10/18 18:09:40;;;;;;;34.20;14.40;;;;;;;18.55;34.50;101579.47;100612;1334;73878;-86
2022/10/18 18:12:05;;;;;;;31.50;15.10;;;;;;;18.55;34.45;101576.52;101112;1323;70027;-87
2022/10/18 18:14:34;;;;;;;30.50;14.30;;;;;;;18.54;34.46;101572.83;101139;1328;71511;-87
2022/10/18 18:17:00;;;;;;;27.80;14.20;;;;;;;18.54;34.47;101569.41;101087;1329;70044;-87
2022/10/18 18:19:25;;;;;;;24.40;14.60;;;;;;;18.54;34.46;101567.73;101127;1326;70027;-86
2022/10/18 18:21:52;;;;;;;32.10;13.90;;;;;;;18.54;34.44;101567.80;101027;1334;70040;-86
2022/10/18 18:24:23;;;;;;;33.40;14.80;;;;;;;18.54;34.51;101563.64;100997;1329;70006;-86
2022/10/18 18:26:52;;;;;;;34.50;14.80;;;;;;;18.53;34.42;101558.95;101112;1318;72542;-86
2022/10/18 18:29:19;;;;;;;27.70;14.80;;;;;;;18.54;34.49;101560.79;101032;1334;69993;-87
2022/10/18 18:31:45;;;;;;;25.30;14.90;;;;;;;18.53;34.50;101558.63;101100;1327;70015;-86
2022/10/18 18:34:10;;;;;;;32.10;15.60;;;;;;;18.53;34.41;101557.05;101166;1337;70073;-92
2022/10/18 18:36:36;;;;;;;26.80;14.50;;;;;;;18.53;34.54;101556.48;101023;1334;69907;-87
2022/10/18 18:39:04;;;;;;;27.40;13.80;;;;;;;18.53;34.47;101553.63;100554;1337;70012;-86
2022/10/18 18:41:29;;;;;;;29.50;14.70;;;;;;;18.52;34.44;101546.11;101061;1334;70068;-86
2022/10/18 18:43:57;;;;;;;22.40;13.40;;;;;;;18.52;34.41;101541.73;100473;1334;70159;-86
2022/10/18 18:46:23;;;;;;;24.90;14.70;;;;;;;18.52;34.47;101542.70;101098;1334;69937;-87
2022/10/18 18:48:48;;;;;;;30.00;14.70;;;;;;;18.51;34.40;101542.98;101063;1327;69918;-87
2022/10/18 18:51:16;;;;;;;26.30;13.80;;;;;;;18.50;34.39;101539.86;100643;1321;70151;-87
2022/10/18 18:53:42;;;;;;;25.30;14.00;;;;;;;18.51;34.43;101535.67;101134;1332;69923;-86
2022/10/18 18:56:09;;;;;;;29.30;13.90;;;;;;;18.50;34.42;101532.11;101093;1334;70092;-87
2022/10/18 18:58:35;;;;;;;28.50;14.20;;;;;;;18.50;34.47;101531.55;101062;1329;69917;-86
2022/10/18 19:01:06;;;;;;;25.00;14.40;;;;;;;18.50;34.41;101526.42;101076;1318;70041;-91
2022/10/18 19:03:32;;;;;;;24.40;14.60;;;;;;;18.50;34.44;101527.56;101036;1334;72375;-86
2022/10/18 19:06:02;;;;;;;27.10;15.20;;;;;;;18.49;34.46;101521.88;100554;1327;70254;-86
2022/10/18 19:08:28;;;;;;;25.00;15.90;;;;;;;18.49;34.48;101521.27;101068;1329;69937;-86
2022/10/18 19:10:53;;;;;;;31.80;16.70;;;;;;;18.48;34.53;101519.84;101133;1334;70004;-86
2022/10/18 19:13:19;;;;;;;24.60;15.70;;;;;;;18.49;34.42;101518.86;101213;1334;70089;-87
2022/10/18 19:15:45;;;;;;;34.70;15.70;;;;;;;18.48;34.36;101512.63;100374;1337;70103;-87
2022/10/18 19:18:10;;;;;;;28.30;14.80;;;;;;;18.48;34.47;101516.16;101146;1334;70053;-87
2022/10/18 19:20:35;;;;;;;27.40;15.60;;;;;;;18.47;34.45;101509.61;101048;1337;69981;-87
2022/10/18 19:23:01;;;;;;;30.40;15.30;;;;;;;18.47;34.42;101509.70;101249;1333;70153;-87
2022/10/18 19:25:26;;;;;;;30.30;15.60;;;;;;;18.47;34.45;101509.55;101299;1334;69967;-87
2022/10/18 19:27:52;;;;;;;25.40;15.60;;;;;;;18.47;34.45;101506.19;100656;1329;67682;-91
2022/10/18 19:30:18;;;;;;;27.00;15.30;;;;;;;18.47;34.44;101501.64;100956;1334;74716;-87
2022/10/18 19:32:44;;;;;;;32.60;16.30;;;;;;;18.46;34.47;101495.66;101163;1334;69920;-87
2022/10/18 19:35:09;;;;;;;34.20;17.70;;;;;;;18.46;34.45;101493.33;101066;1332;70091;-87
2022/10/18 19:37:35;;;;;;;41.20;19.30;;;;;;;18.46;34.48;101493.58;101030;1334;70149;-87
2022/10/18 19:40:00;;;;;;;53.20;21.30;;;;;;;18.46;34.53;101489.49;101173;1327;69934;-87
2022/10/18 19:42:26;;;;;;;52.30;22.60;;;;;;;18.45;34.46;101486.48;100700;1334;84077;-86
2022/10/18 19:44:51;;;;;;;57.90;23.40;;;;;;;18.46;34.60;101484.38;101089;1334;69944;-87
2022/10/18 19:47:17;;;;;;;59.20;23.90;;;;;;;18.45;34.53;101481.92;101128;1329;70342;-87
2022/10/18 19:49:43;;;;;;;52.00;24.10;;;;;;;18.45;34.53;101479.92;101144;1327;69992;-87
2022/10/18 19:52:10;;;;;;;49.60;22.20;;;;;;;18.45;34.51;101475.85;101152;1335;69961;-87
2022/10/18 19:54:36;;;;;;;56.40;23.00;;;;;;;18.45;34.52;101474.73;100595;1334;72512;-87
2022/10/18 19:57:02;;;;;;;51.70;23.60;;;;;;;18.44;34.57;101475.33;100568;1334;70105;-87
2022/10/18 19:59:27;;;;;;;53.70;21.90;;;;;;;18.44;34.60;101476.75;100479;1337;70122;-87
2022/10/18 20:01:53;;;;;;;49.00;22.10;;;;;;;18.44;34.53;101473.42;100611;1329;70007;-87
2022/10/18 20:04:18;;;;;;;48.50;20.90;;;;;;;18.43;34.61;101471.59;100594;1337;70082;-87
2022/10/18 20:06:44;;;;;;;45.80;20.70;;;;;;;18.43;34.61;101466.73;100976;1334;69974;-92
2022/10/18 20:09:10;;;;;;;41.00;20.00;;;;;;;18.43;34.63;101464.08;101026;1328;69979;-87
2022/10/18 20:11:36;;;;;;;39.40;19.60;;;;;;;18.43;34.63;101460.25;101064;1326;69965;-86
2022/10/18 20:14:01;;;;;;;46.10;19.90;;;;;;;18.42;34.67;101457.07;100529;1337;70117;-87
2022/10/18 20:16:29;;;;;;;43.80;20.50;;;;;;;18.42;34.56;101457.02;100645;1337;70028;-87
2022/10/18 20:19:00;;;;;;;39.50;20.00;;;;;;;18.41;34.66;101451.14;101025;1335;69813;-87
2022/10/18 20:21:26;;;;;;;36.30;19.60;;;;;;;18.41;34.67;101449.61;100962;1327;73690;-86
2022/10/18 20:23:51;;;;;;;44.30;19.70;;;;;;;18.41;34.65;101450.33;100541;1337;69958;-86
2022/10/18 20:26:19;;;;;;;40.00;20.10;;;;;;;18.41;34.66;101447.61;101025;1326;70101;-87
2022/10/18 20:28:45;;;;;;;33.60;19.10;;;;;;;18.40;34.64;101445.41;101079;1327;69975;-87
2022/10/18 20:31:11;;;;;;;38.10;20.50;;;;;;;18.40;34.63;101442.61;101065;1333;70024;-87
2022/10/18 20:33:37;;;;;;;39.40;21.20;;;;;;;18.40;34.53;101441.98;101099;1327;69954;-92
2022/10/18 20:36:07;;;;;;;36.30;21.80;;;;;;;18.39;34.58;101438.72;101005;1329;70147;-87
2022/10/18 20:38:33;;;;;;;43.80;22.00;;;;;;;18.39;34.56;101438.73;101075;1334;72659;-86
2022/10/18 20:41:10;;;;;;;37.40;22.00;;;;;;;18.39;34.50;101433.14;101005;1334;69881;-87
2022/10/18 20:43:35;;;;;;;36.00;21.80;;;;;;;18.39;34.52;101425.85;101042;1337;70027;-87
2022/10/18 20:46:01;;;;;;;39.70;21.50;;;;;;;18.38;34.46;101427.33;101072;1333;70051;-87
2022/10/18 20:48:27;;;;;;;34.60;21.00;;;;;;;18.38;34.36;101420.13;100414;1337;70092;-86
2022/10/18 20:50:52;;;;;;;32.30;20.30;;;;;;;18.37;34.37;101421.90;100584;1334;70031;-87
2022/10/18 20:53:18;;;;;;;30.50;20.10;;;;;;;18.37;34.30;101416.80;100623;1334;70001;-86
2022/10/18 20:55:43;;;;;;;34.10;19.70;;;;;;;18.37;34.23;101416.73;101118;1335;73711;-87
2022/10/18 20:58:10;;;;;;;34.40;20.70;;;;;;;18.37;34.19;101416.58;100676;1328;70131;-87
2022/10/18 21:00:35;;;;;;;31.40;20.40;;;;;;;18.37;34.23;101417.85;100911;1331;69914;-91
2022/10/18 21:03:01;;;;;;;36.30;20.80;;;;;;;18.36;34.19;101413.86;101028;1329;70025;-86
2022/10/18 21:05:30;;;;;;;32.60;21.60;;;;;;;18.36;34.08;101413.55;101102;1327;70343;-87
2022/10/18 21:07:56;;;;;;;35.80;23.20;;;;;;;18.36;34.19;101412.21;100557;1337;70119;-87
2022/10/18 21:10:21;;;;;;;38.70;23.30;;;;;;;18.36;34.14;101409.02;101040;1334;70025;-87
2022/10/18 21:12:47;;;;;;;40.30;24.60;;;;;;;18.34;34.16;101406.17;100986;1330;70028;-88
2022/10/18 21:15:13;;;;;;;44.00;25.80;;;;;;;18.34;34.09;101400.27;101031;1335;70012;-86
2022/10/18 21:17:38;;;;;;;42.80;25.00;;;;;;;18.34;34.02;101397.30;101109;1330;70100;-87
2022/10/18 21:20:04;;;;;;;45.20;26.60;;;;;;;18.34;34.10;101391.30;101028;1327;69996;-87
2022/10/18 21:22:30;;;;;;;46.30;27.30;;;;;;;18.34;34.03;101386.44;100678;1319;70035;-87
2022/10/18 21:24:55;;;;;;;48.10;27.40;;;;;;;18.33;34.16;101383.41;101131;1325;70149;-87
2022/10/18 21:27:21;;;;;;;46.80;27.50;;;;;;;18.33;34.13;101384.85;100978;1329;70112;-92
2022/10/18 21:29:47;;;;;;;49.30;27.50;;;;;;;18.33;34.22;101383.35;100649;1334;70180;-87
2022/10/18 21:32:13;;;;;;;48.70;27.30;;;;;;;18.32;34.33;101380.80;101103;1337;72598;-87
2022/10/18 21:34:38;;;;;;;51.90;29.00;;;;;;;18.33;34.39;101377.49;100623;1334;70129;-87
2022/10/18 21:37:04;;;;;;;51.10;28.90;;;;;;;18.32;34.46;101372.42;101110;1334;70021;-87
2022/10/18 21:39:29;;;;;;;51.60;28.70;;;;;;;18.32;34.45;101368.91;100620;1333;70174;-92
2022/10/18 21:41:55;;;;;;;53.20;28.50;;;;;;;18.32;34.58;101369.06;101120;1337;70033;-87
2022/10/18 21:44:20;;;;;;;50.90;27.30;;;;;;;18.31;34.59;101369.71;100658;1337;70107;-87
2022/10/18 21:46:46;;;;;;;47.90;27.90;;;;;;;18.31;34.59;101366.05;101172;1323;70010;-87
2022/10/18 21:49:12;;;;;;;46.90;27.20;;;;;;;18.31;34.70;101363.49;100560;1334;69987;-87
2022/10/18 21:51:38;;;;;;;49.70;27.70;;;;;;;18.31;34.61;101358.70;100685;1334;69949;-87